createdAt,value
2023-02-06T00:01:26.688Z,99.75
2023-02-06T00:03:53.849Z,97.20
2023-02-06T00:06:20.952Z,93.13
2023-02-06T00:08:48.104Z,82.70
2023-02-06T00:11:16.777Z,90.10
2023-02-06T00:13:45.016Z,81.15
2023-02-06T00:16:29.717Z,86.47
2023-02-06T00:18:57.463Z,86.60
2023-02-06T00:21:26.063Z,75.43
2023-02-06T00:23:58.286Z,79.07
2023-02-06T00:26:25.766Z,78.22
2023-02-06T00:28:53.865Z,89.05
2023-02-06T00:31:21.272Z,76.53
2023-02-06T00:33:48.467Z,74.95
2023-02-06T00:36:15.708Z,83.53
2023-02-06T00:38:42.855Z,91.03
2023-02-06T00:41:11.242Z,94.15
2023-02-06T00:43:38.395Z,100.68
2023-02-06T00:46:05.784Z,92.22
2023-02-06T00:48:33.023Z,92.57
2023-02-06T00:51:00.220Z,84.93
2023-02-06T00:53:27.471Z,90.28
2023-02-06T00:55:54.589Z,96.30
2023-02-06T00:58:22.185Z,99.82
2023-02-06T01:00:49.413Z,118.63
2023-02-06T01:03:18.721Z,106.47
2023-02-06T01:05:45.838Z,115.60
2023-02-06T01:08:12.960Z,121.68
2023-02-06T01:10:43.872Z,117.22
2023-02-06T01:13:11.157Z,124.43
2023-02-06T01:15:38.396Z,119.28
2023-02-06T01:18:05.657Z,124.03
2023-02-06T01:20:32.862Z,120.90
2023-02-06T01:23:00.011Z,127.72
2023-02-06T01:25:27.169Z,126.72
2023-02-06T01:27:54.294Z,139.98
2023-02-06T01:30:21.530Z,116.60
2023-02-06T01:32:49.746Z,123.20
2023-02-06T01:35:16.940Z,123.35
2023-02-06T01:37:44.144Z,129.88
2023-02-06T01:40:14.764Z,125.85
2023-02-06T01:42:42.097Z,126.15
2023-02-06T01:45:35.230Z,123.05
2023-02-06T01:48:15.049Z,122.00
2023-02-06T01:50:44.009Z,128.07
2023-02-06T01:53:11.149Z,122.65
2023-02-06T01:55:38.527Z,122.57
2023-02-06T01:58:05.980Z,112.60
2023-02-06T02:00:33.138Z,117.20
2023-02-06T02:03:00.276Z,111.00
2023-02-06T02:05:27.431Z,103.60
2023-02-06T02:08:02.683Z,104.38
2023-02-06T02:10:30.537Z,105.03
2023-02-06T02:12:57.763Z,95.00
2023-02-06T02:15:39.073Z,95.03
2023-02-06T02:18:33.804Z,95.82
2023-02-06T02:21:43.827Z,94.60
2023-02-06T02:24:20.875Z,109.22
2023-02-06T02:26:56.679Z,100.50
2023-02-06T02:29:44.529Z,100.70
2023-02-06T02:32:29.774Z,96.70
2023-02-06T02:35:10.927Z,89.97
2023-02-06T02:38:04.035Z,92.13
2023-02-06T02:40:41.416Z,95.28
2023-02-06T02:43:35.286Z,89.55
2023-02-06T02:46:43.275Z,88.67
2023-02-06T02:49:23.545Z,82.90
2023-02-06T02:51:50.835Z,85.15
2023-02-06T02:54:18.403Z,96.50
2023-02-06T02:56:45.565Z,107.82
2023-02-06T02:59:23.935Z,119.63
2023-02-06T03:02:10.543Z,111.28
2023-02-06T03:04:40.643Z,139.27
2023-02-06T03:07:35.500Z,128.27
2023-02-06T03:10:18.057Z,135.30
2023-02-06T03:13:23.261Z,136.57
2023-02-06T03:16:31.388Z,139.25
2023-02-06T03:19:07.514Z,137.38
2023-02-06T03:21:35.771Z,127.43
2023-02-06T03:24:07.178Z,125.97
2023-02-06T03:26:34.346Z,118.63
2023-02-06T03:29:02.941Z,118.68
2023-02-06T03:31:40.872Z,107.65
2023-02-06T03:34:47.654Z,110.15
2023-02-06T03:37:14.800Z,119.60
2023-02-06T03:39:44.392Z,109.97
2023-02-06T03:42:11.883Z,122.50
2023-02-06T03:44:43.874Z,128.95
2023-02-06T03:47:11.142Z,124.95
2023-02-06T03:49:39.462Z,116.22
2023-02-06T03:52:09.568Z,115.72
2023-02-06T03:54:40.212Z,111.63
2023-02-06T03:57:08.635Z,103.65
2023-02-06T03:59:35.742Z,112.35
2023-02-06T04:02:04.036Z,118.68
2023-02-06T04:04:37.313Z,140.30
2023-02-06T04:07:18.122Z,124.50
2023-02-06T04:09:45.679Z,127.32
2023-02-06T04:12:12.836Z,133.25
2023-02-06T04:14:39.945Z,141.13
2023-02-06T04:17:07.241Z,135.55
2023-02-06T04:19:34.486Z,130.23
2023-02-06T04:22:02.018Z,132.73
2023-02-06T04:24:30.970Z,137.82
2023-02-06T04:26:58.666Z,139.50
2023-02-06T04:29:26.010Z,137.80
2023-02-06T04:31:53.182Z,137.68
2023-02-06T04:34:20.311Z,134.15
2023-02-06T04:36:47.458Z,132.32
2023-02-06T04:39:14.691Z,136.32
2023-02-06T04:41:42.070Z,127.90
2023-02-06T04:44:09.315Z,136.95
2023-02-06T04:46:38.550Z,136.15
2023-02-06T04:49:05.704Z,135.20
2023-02-06T04:51:32.837Z,124.63
2023-02-06T04:54:00.065Z,129.23
2023-02-06T04:56:34.775Z,138.05
2023-02-06T04:59:01.994Z,137.50
2023-02-06T05:01:29.284Z,130.02
2023-02-06T05:03:56.409Z,134.18
2023-02-06T05:06:23.711Z,135.35
2023-02-06T05:08:50.817Z,134.07
2023-02-06T05:11:17.964Z,138.30
2023-02-06T05:13:45.484Z,131.32
2023-02-06T05:16:14.620Z,130.40
2023-02-06T05:18:42.311Z,129.90
2023-02-06T05:21:09.436Z,136.20
2023-02-06T05:23:36.576Z,115.82
2023-02-06T05:26:03.873Z,112.00
2023-02-06T05:28:33.408Z,115.07
2023-02-06T05:31:01.408Z,115.68
2023-02-06T05:33:28.676Z,116.50
2023-02-06T05:36:02.941Z,117.57
2023-02-06T05:38:30.208Z,125.90
2023-02-06T05:40:57.329Z,135.25
2023-02-06T05:43:24.534Z,132.38
2023-02-06T05:45:51.872Z,117.55
2023-02-06T05:48:19.074Z,121.80
2023-02-06T05:50:49.657Z,131.15
2023-02-06T05:53:17.509Z,132.60
2023-02-06T05:55:44.645Z,119.72
2023-02-06T05:58:11.929Z,115.47
2023-02-06T06:00:39.125Z,130.38
2023-02-06T06:03:06.236Z,127.40
2023-02-06T06:05:33.558Z,114.95
2023-02-06T06:08:00.836Z,117.18
2023-02-06T06:10:28.014Z,131.68
2023-02-06T06:12:55.195Z,130.23
2023-02-06T06:15:22.310Z,128.70
2023-02-06T06:17:49.431Z,122.10
2023-02-06T06:20:16.868Z,122.82
2023-02-06T06:22:44.028Z,141.50
2023-02-06T06:25:12.180Z,149.90
2023-02-06T06:27:39.736Z,150.93
2023-02-06T06:30:07.752Z,148.00
2023-02-06T06:32:34.934Z,155.30
2023-02-06T06:35:02.053Z,148.43
2023-02-06T06:37:29.192Z,146.15
2023-02-06T06:39:56.307Z,155.15
2023-02-06T06:42:23.526Z,139.75
2023-02-06T06:44:50.636Z,160.85
2023-02-06T06:47:17.884Z,140.23
2023-02-06T06:49:45.054Z,147.75
2023-02-06T06:52:24.043Z,146.85
2023-02-06T06:54:53.018Z,156.07
2023-02-06T06:57:21.575Z,152.07
2023-02-06T06:59:49.005Z,155.65
2023-02-06T07:02:16.409Z,131.23
2023-02-06T07:04:43.632Z,149.80
2023-02-06T07:07:15.824Z,150.02
2023-02-06T07:09:42.981Z,158.15
2023-02-06T07:12:12.805Z,150.45
2023-02-06T07:14:40.519Z,155.20
2023-02-06T07:17:07.646Z,150.52
2023-02-06T07:19:34.819Z,148.65
2023-02-06T07:22:01.992Z,124.25
2023-02-06T07:24:29.137Z,140.00
2023-02-06T07:26:57.782Z,146.75
2023-02-06T07:29:29.949Z,144.60
2023-02-06T07:31:57.555Z,143.00
2023-02-06T07:34:24.995Z,141.57
2023-02-06T07:36:52.235Z,141.73
2023-02-06T07:39:19.440Z,149.23
2023-02-06T07:41:49.090Z,151.15
2023-02-06T07:44:19.425Z,154.88
2023-02-06T07:46:50.478Z,160.90
2023-02-06T07:49:17.748Z,149.55
2023-02-06T07:51:45.505Z,154.68
2023-02-06T07:54:15.540Z,170.82
2023-02-06T07:56:42.763Z,162.75
2023-02-06T07:59:10.111Z,171.27
2023-02-06T08:01:37.296Z,171.20
2023-02-06T08:04:04.588Z,160.18
2023-02-06T08:06:31.764Z,180.70
2023-02-06T08:08:58.898Z,166.18
2023-02-06T08:11:28.959Z,160.65
2023-02-06T08:13:56.301Z,166.80
2023-02-06T08:16:23.970Z,166.43
2023-02-06T08:18:51.308Z,162.25
2023-02-06T08:21:21.581Z,153.80
2023-02-06T08:23:54.858Z,171.60
2023-02-06T08:26:22.186Z,150.95
2023-02-06T08:28:55.691Z,150.80
2023-02-06T08:31:33.823Z,156.90
2023-02-06T08:34:01.053Z,150.57
2023-02-06T08:36:31.091Z,150.82
2023-02-06T08:38:58.748Z,169.85
2023-02-06T08:41:40.063Z,160.27
2023-02-06T08:44:16.139Z,154.65
2023-02-06T08:46:44.259Z,144.35
2023-02-06T08:49:19.613Z,156.45
2023-02-06T08:51:50.361Z,128.25
2023-02-06T08:54:20.716Z,134.05
2023-02-06T08:56:50.845Z,136.77
2023-02-06T08:59:20.532Z,148.98
2023-02-06T09:01:49.290Z,142.60
2023-02-06T09:04:16.573Z,143.32
2023-02-06T09:06:49.043Z,140.80
2023-02-06T09:09:22.327Z,118.28
2023-02-06T09:11:49.513Z,125.45
2023-02-06T09:14:19.264Z,97.25
2023-02-06T09:16:49.112Z,80.90
2023-02-06T09:19:16.241Z,73.32
2023-02-06T09:21:43.427Z,79.55
2023-02-06T09:24:13.634Z,63.95
2023-02-06T09:26:58.509Z,65.18
2023-02-06T09:29:34.062Z,67.65
2023-02-06T09:32:01.413Z,68.65
2023-02-06T09:34:31.416Z,71.35
2023-02-06T09:37:01.430Z,73.65
2023-02-06T09:39:28.871Z,75.60
2023-02-06T09:42:03.297Z,67.65
2023-02-06T09:44:32.964Z,70.07
2023-02-06T09:47:18.067Z,63.42
2023-02-06T09:50:02.753Z,59.90
2023-02-06T09:52:56.730Z,46.83
2023-02-06T09:55:48.399Z,42.75
2023-02-06T09:58:40.166Z,53.45
2023-02-06T10:01:35.134Z,45.47
2023-02-06T10:04:48.626Z,37.08
2023-02-06T10:08:01.322Z,31.85
2023-02-06T10:10:47.636Z,24.70
2023-02-06T10:13:49.648Z,37.70
2023-02-06T10:16:39.836Z,34.88
2023-02-06T10:19:33.517Z,46.47
2023-02-06T10:22:11.581Z,39.28
2023-02-06T10:24:50.487Z,31.95
2023-02-06T10:27:20.295Z,32.45
2023-02-06T10:29:48.505Z,32.95
2023-02-06T10:32:54.254Z,45.33
2023-02-06T10:35:54.058Z,28.02
2023-02-06T10:38:54.937Z,27.38
2023-02-06T10:41:46.959Z,25.05
2023-02-06T10:44:31.436Z,28.83
2023-02-06T10:47:01.104Z,24.20
2023-02-06T10:49:45.405Z,28.02
2023-02-06T10:52:38.413Z,17.58
2023-02-06T10:55:26.647Z,21.38
2023-02-06T10:58:20.638Z,18.70
2023-02-06T11:00:57.736Z,19.00
2023-02-06T11:03:28.638Z,25.80
2023-02-06T11:05:55.841Z,30.25
2023-02-06T11:08:26.683Z,22.50
2023-02-06T11:10:56.640Z,19.30
2023-02-06T11:13:35.132Z,17.30
2023-02-06T11:16:13.003Z,22.88
2023-02-06T11:18:43.398Z,17.70
2023-02-06T11:21:12.958Z,18.55
2023-02-06T11:23:40.185Z,23.48
2023-02-06T11:26:18.433Z,22.73
2023-02-06T11:28:57.110Z,20.77
2023-02-06T11:31:57.049Z,18.63
2023-02-06T11:34:32.928Z,25.70
2023-02-06T11:37:05.903Z,23.10
2023-02-06T11:39:50.352Z,29.08
2023-02-06T11:42:28.397Z,33.13
2023-02-06T11:44:55.806Z,26.50
2023-02-06T11:47:37.792Z,22.48
2023-02-06T11:50:36.258Z,21.58
2023-02-06T11:53:10.131Z,23.20
2023-02-06T11:55:38.704Z,25.70
2023-02-06T11:58:12.017Z,25.58
2023-02-06T12:00:59.227Z,27.48
2023-02-06T12:03:33.878Z,20.88
2023-02-06T12:06:15.342Z,32.25
2023-02-06T12:09:11.750Z,22.27
2023-02-06T12:12:11.261Z,27.75
2023-02-06T12:14:58.765Z,22.92
2023-02-06T12:18:03.628Z,20.45
2023-02-06T12:20:59.380Z,26.52
2023-02-06T12:23:41.016Z,26.50
2023-02-06T12:26:14.893Z,36.28
2023-02-06T12:29:08.115Z,31.38
2023-02-06T12:31:58.901Z,28.10
2023-02-06T12:34:49.491Z,23.05
2023-02-06T12:37:39.816Z,24.65
2023-02-06T12:40:45.814Z,25.33
2023-02-06T12:43:15.177Z,27.20
2023-02-06T12:45:58.106Z,32.13
2023-02-06T12:48:57.631Z,29.48
2023-02-06T12:51:36.187Z,23.92
2023-02-06T12:54:55.934Z,31.08
2023-02-06T12:57:25.861Z,30.35
2023-02-06T13:00:05.406Z,29.60
2023-02-06T13:03:10.614Z,28.77
2023-02-06T13:06:11.410Z,19.88
2023-02-06T13:08:48.933Z,24.02
2023-02-06T13:11:39.307Z,25.63
2023-02-06T13:14:18.310Z,26.45
2023-02-06T13:16:56.796Z,27.52
2023-02-06T13:19:28.267Z,33.50
2023-02-06T13:22:10.641Z,28.17
2023-02-06T13:24:39.089Z,28.77
2023-02-06T13:27:10.054Z,35.65
2023-02-06T13:29:54.016Z,27.13
2023-02-06T13:32:30.436Z,28.08
2023-02-06T13:35:13.070Z,28.45
2023-02-06T13:37:47.782Z,26.45
2023-02-06T13:40:18.117Z,21.45
2023-02-06T13:43:01.054Z,24.05
2023-02-06T13:46:05.599Z,20.95
2023-02-06T13:48:54.618Z,20.83
2023-02-06T13:51:48.505Z,18.60
2023-02-06T13:54:52.901Z,23.08
2023-02-06T13:57:55.980Z,33.20
2023-02-06T14:00:31.397Z,26.15
2023-02-06T14:03:07.386Z,18.45
2023-02-06T14:06:17.348Z,23.45
2023-02-06T14:09:39.941Z,21.05
2023-02-06T14:12:45.691Z,16.33
2023-02-06T14:15:30.364Z,20.35
2023-02-06T14:18:07.249Z,22.35
2023-02-06T14:20:55.151Z,24.00
2023-02-06T14:23:50.828Z,23.55
2023-02-06T14:26:37.312Z,30.42
2023-02-06T14:29:31.585Z,27.75
2023-02-06T14:32:23.620Z,26.08
2023-02-06T14:35:25.148Z,23.33
2023-02-06T14:38:37.144Z,24.77
2023-02-06T14:41:04.501Z,26.83
2023-02-06T14:43:36.024Z,29.60
2023-02-06T14:46:08.450Z,21.00
2023-02-06T14:48:53.791Z,22.17
2023-02-06T14:51:35.382Z,26.30
2023-02-06T14:54:14.679Z,26.20
2023-02-06T14:56:41.927Z,23.60
2023-02-06T14:59:18.832Z,29.00
2023-02-06T15:01:52.157Z,28.50
2023-02-06T15:04:28.568Z,37.50
2023-02-06T15:07:02.131Z,30.13
2023-02-06T15:09:35.628Z,32.92
2023-02-06T15:12:17.509Z,37.10
2023-02-06T15:15:02.577Z,30.10
2023-02-06T15:17:30.270Z,34.90
2023-02-06T15:19:57.765Z,32.83
2023-02-06T15:22:30.099Z,31.00
2023-02-06T15:25:03.378Z,34.95
2023-02-06T15:27:35.931Z,35.53
2023-02-06T15:30:22.553Z,34.60
2023-02-06T15:32:51.872Z,31.20
2023-02-06T15:35:36.785Z,47.58
2023-02-06T15:38:10.999Z,31.77
2023-02-06T15:43:06.760Z,36.10
2023-02-06T15:45:37.314Z,41.28
2023-02-06T15:48:46.696Z,35.38
2023-02-06T15:51:25.176Z,37.92
2023-02-06T15:54:15.336Z,35.83
2023-02-06T15:56:42.738Z,34.38
2023-02-06T15:59:19.352Z,29.95
2023-02-06T16:01:46.668Z,34.13
2023-02-06T16:04:37.275Z,43.65
2023-02-06T16:07:12.621Z,33.60
2023-02-06T16:10:10.350Z,31.25
2023-02-06T16:12:44.535Z,37.58
2023-02-06T16:15:33.908Z,35.67
2023-02-06T16:18:26.572Z,40.17
2023-02-06T16:21:31.725Z,32.63
2023-02-06T16:24:03.220Z,36.45
2023-02-06T16:27:05.323Z,38.35
2023-02-06T16:29:32.764Z,44.38
2023-02-06T16:32:02.370Z,46.28
2023-02-06T16:34:45.149Z,50.17
2023-02-06T16:37:17.639Z,47.05
2023-02-06T16:39:45.039Z,40.08
2023-02-06T16:42:20.857Z,44.90
2023-02-06T16:44:51.266Z,46.45
2023-02-06T16:47:20.078Z,36.47
2023-02-06T16:49:51.099Z,53.13
2023-02-06T16:52:31.393Z,49.85
2023-02-06T16:54:59.124Z,58.33
2023-02-06T16:57:38.179Z,63.13
2023-02-06T17:00:25.572Z,53.97
2023-02-06T17:02:53.374Z,40.35
2023-02-06T17:05:25.424Z,54.55
2023-02-06T17:07:52.880Z,55.83
2023-02-06T17:10:23.631Z,50.22
2023-02-06T17:12:50.973Z,49.28
2023-02-06T17:15:18.658Z,56.72
2023-02-06T17:17:46.069Z,65.43
2023-02-06T17:20:35.852Z,70.32
2023-02-06T17:23:03.205Z,89.47
2023-02-06T17:25:30.661Z,127.03
2023-02-06T17:27:57.842Z,163.60
2023-02-06T17:30:26.210Z,96.90
2023-02-06T17:32:53.554Z,82.28
2023-02-06T17:35:20.764Z,69.32
2023-02-06T17:37:49.207Z,74.38
2023-02-06T17:40:26.672Z,83.80
2023-02-06T17:42:54.090Z,83.75
2023-02-06T17:45:21.337Z,68.22
2023-02-06T17:47:48.508Z,75.53
2023-02-06T17:50:18.740Z,67.75
2023-02-06T17:52:46.067Z,77.07
2023-02-06T17:55:13.255Z,89.35
2023-02-06T17:57:40.450Z,106.82
2023-02-06T18:00:12.859Z,91.65
2023-02-06T18:02:40.046Z,88.80
2023-02-06T18:05:07.725Z,86.68
2023-02-06T18:07:34.963Z,99.93
2023-02-06T18:10:02.167Z,91.95
2023-02-06T18:12:29.327Z,98.20
2023-02-06T18:14:56.602Z,103.15
2023-02-06T18:17:23.738Z,103.13
2023-02-06T18:19:50.986Z,95.65
2023-02-06T18:22:20.300Z,106.53
2023-02-06T18:24:47.916Z,113.05
2023-02-06T18:27:15.315Z,106.75
2023-02-06T18:29:49.830Z,121.45
2023-02-06T18:32:19.875Z,111.38
2023-02-06T18:34:49.328Z,127.15
2023-02-06T18:37:16.559Z,115.13
2023-02-06T18:39:46.709Z,105.13
2023-02-06T18:42:32.699Z,92.68
2023-02-06T18:44:59.819Z,113.93
2023-02-06T18:47:26.974Z,105.07
2023-02-06T18:49:54.186Z,104.90
2023-02-06T18:52:21.323Z,95.97
2023-02-06T18:54:48.848Z,117.97
2023-02-06T18:57:16.043Z,123.18
2023-02-06T18:59:43.194Z,153.15
2023-02-06T19:02:11.908Z,156.93
2023-02-06T19:04:40.624Z,156.35
2023-02-06T19:07:08.971Z,155.48
2023-02-06T19:09:36.195Z,159.48
2023-02-06T19:12:03.509Z,176.40
2023-02-06T19:14:31.144Z,168.57
2023-02-06T19:16:58.541Z,181.20
2023-02-06T19:19:25.715Z,166.85
2023-02-06T19:21:52.859Z,185.52
2023-02-06T19:24:20.165Z,212.45
2023-02-06T19:26:47.482Z,192.15
2023-02-06T19:29:19.371Z,154.93
2023-02-06T19:31:51.246Z,178.25
2023-02-06T19:34:18.410Z,172.23
2023-02-06T19:36:45.570Z,144.20
2023-02-06T19:39:13.245Z,197.07
2023-02-06T19:41:40.430Z,180.52
2023-02-06T19:44:10.692Z,162.65
2023-02-06T19:46:38.051Z,182.63
2023-02-06T19:49:08.569Z,187.65
2023-02-06T19:51:39.701Z,192.25
2023-02-06T19:54:07.095Z,151.48
2023-02-06T19:56:41.340Z,138.48
2023-02-06T20:02:05.347Z,76.03
2023-02-06T20:04:34.675Z,98.20
2023-02-06T20:07:01.978Z,84.85
2023-02-06T20:09:29.421Z,115.65
2023-02-06T20:11:59.642Z,183.27
2023-02-06T20:14:27.004Z,108.35
2023-02-06T20:16:55.476Z,127.05
2023-02-06T20:19:31.054Z,119.40
2023-02-06T20:22:02.436Z,141.20
2023-02-06T20:24:31.379Z,135.15
2023-02-06T20:27:07.252Z,76.10
2023-02-06T20:29:38.937Z,134.05
2023-02-06T20:32:06.486Z,42.63
2023-02-06T20:34:33.868Z,144.02
2023-02-06T20:37:01.048Z,137.88
2023-02-06T20:39:28.785Z,138.80
2023-02-06T20:41:56.021Z,80.07
2023-02-06T20:44:23.280Z,180.07
2023-02-06T20:46:50.434Z,124.63
2023-02-06T20:49:26.173Z,160.02
2023-02-06T20:51:53.672Z,91.72
2023-02-06T20:54:21.124Z,104.25
2023-02-06T20:56:48.461Z,36.92
2023-02-06T20:59:17.168Z,99.30
2023-02-06T21:01:44.469Z,103.25
2023-02-06T21:04:12.947Z,75.43
2023-02-06T21:06:40.199Z,126.63
2023-02-06T21:09:07.887Z,54.15
2023-02-06T21:11:41.810Z,72.70
2023-02-06T21:14:09.117Z,104.00
2023-02-06T21:16:38.129Z,125.60
2023-02-06T21:19:07.141Z,63.05
2023-02-06T21:21:34.572Z,121.95
2023-02-06T21:24:04.401Z,82.38
2023-02-06T21:26:31.742Z,83.68
2023-02-06T21:28:59.707Z,93.65
2023-02-06T21:31:34.170Z,78.38
2023-02-06T21:34:17.545Z,83.05
2023-02-06T21:36:45.782Z,77.70
2023-02-06T21:39:17.040Z,73.15
2023-02-06T21:41:44.761Z,59.88
2023-02-06T21:44:11.925Z,78.10
2023-02-06T21:46:39.155Z,105.32
2023-02-06T21:49:06.705Z,78.15
2023-02-06T21:51:33.835Z,90.57
2023-02-06T21:54:01.012Z,96.03
2023-02-06T21:56:28.447Z,72.38
2023-02-06T21:58:55.966Z,85.55
2023-02-06T22:01:26.522Z,82.25
2023-02-06T22:03:54.061Z,95.70
2023-02-06T22:06:21.307Z,89.07
2023-02-06T22:08:51.975Z,64.22
2023-02-06T22:11:27.526Z,154.50
2023-02-06T22:14:02.404Z,111.90
2023-02-06T22:16:29.676Z,78.93
2023-02-06T22:18:56.969Z,89.97
2023-02-06T22:21:26.343Z,90.10
2023-02-06T22:23:55.442Z,82.68
2023-02-06T22:26:22.593Z,89.75
2023-02-06T22:28:49.792Z,110.97
2023-02-06T22:31:32.457Z,107.22
2023-02-06T22:34:00.145Z,99.72
2023-02-06T22:36:30.307Z,112.88
2023-02-06T22:39:03.936Z,92.72
2023-02-06T22:41:31.192Z,84.07
2023-02-06T22:43:58.384Z,119.53
2023-02-06T22:46:36.583Z,124.10
2023-02-06T22:49:05.831Z,101.47
2023-02-06T22:51:33.099Z,131.15
2023-02-06T22:54:00.656Z,91.70
2023-02-06T22:56:36.198Z,139.95
2023-02-06T22:59:17.383Z,112.60
2023-02-06T23:01:50.358Z,107.63
2023-02-06T23:04:22.857Z,110.20
2023-02-06T23:06:50.215Z,101.97
2023-02-06T23:09:24.902Z,138.45
2023-02-06T23:11:52.564Z,122.38
2023-02-06T23:14:20.135Z,105.15
2023-02-06T23:16:47.321Z,158.30
2023-02-06T23:19:14.641Z,161.95
2023-02-06T23:21:42.565Z,123.22
2023-02-06T23:24:10.026Z,116.20
2023-02-06T23:26:37.587Z,125.10
2023-02-06T23:29:07.984Z,110.03
2023-02-06T23:31:37.668Z,130.98
2023-02-06T23:34:04.775Z,104.20
2023-02-06T23:36:31.988Z,116.65
2023-02-06T23:39:02.117Z,139.02
2023-02-06T23:41:29.436Z,109.95
2023-02-06T23:44:01.832Z,100.65
2023-02-06T23:46:30.748Z,110.65
2023-02-06T23:48:58.310Z,98.28
2023-02-06T23:51:25.760Z,77.38
2023-02-06T23:53:52.963Z,90.97
2023-02-06T23:56:23.606Z,69.47
2023-02-06T23:58:51.094Z,81.35
